Time;durP1;ratioP1;P1;durP2;ratioP2;P2;SDS_P1;SDS_P2;PMS_P1;PMS_P2;Temp;Humidity;BMP_temperature;BMP_pressure;BME280_temperature;BME280_humidity;BME280_pressure;Samples;Min_cycle;Max_cycle;Signal;HPM_P1;HPM_P2
2023/05/12 00:00:17;;;;;;;10.15;6.78;;;;;;;11.29;88.39;101375.31;4842014;29;20514;-82
2023/05/12 00:02:43;;;;;;;10.63;7.18;;;;;;;11.28;88.85;101376.31;4841779;29;20030;-83
2023/05/12 00:05:08;;;;;;;12.05;7.43;;;;;;;11.27;88.58;101371.94;4833726;29;20770;-82
2023/05/12 00:07:34;;;;;;;11.57;7.40;;;;;;;11.26;88.81;101375.66;4830393;29;20043;-83
2023/05/12 00:09:59;;;;;;;12.45;8.00;;;;;;;11.25;88.64;101370.44;4824383;29;20038;-83
2023/05/12 00:12:24;;;;;;;12.23;8.07;;;;;;;11.25;88.83;101365.06;4827063;29;20034;-83
2023/05/12 00:14:50;;;;;;;11.02;7.88;;;;;;;11.27;88.86;101368.41;4836132;29;20078;-83
2023/05/12 00:17:15;;;;;;;12.00;7.78;;;;;;;11.27;88.82;101366.56;4839794;29;20048;-83
2023/05/12 00:19:43;;;;;;;13.07;8.15;;;;;;;11.25;88.82;101368.59;4832347;29;20038;-83
2023/05/12 00:22:11;;;;;;;13.77;8.35;;;;;;;11.24;88.71;101372.31;4824457;29;20106;-83
2023/05/12 00:24:37;;;;;;;13.13;8.15;;;;;;;11.26;88.60;101359.50;4832961;29;20473;-83
2023/05/12 00:27:02;;;;;;;15.05;8.43;;;;;;;11.26;88.81;101359.50;4840358;29;20467;-82
2023/05/12 00:29:28;;;;;;;15.90;9.57;;;;;;;11.23;89.04;101346.41;4835588;29;20510;-83
2023/05/12 00:31:54;;;;;;;15.88;9.07;;;;;;;11.26;88.94;101348.72;4822880;29;20033;-82
2023/05/12 00:34:19;;;;;;;15.73;8.85;;;;;;;11.27;89.07;101344.16;4831139;29;20054;-82
2023/05/12 00:36:45;;;;;;;13.95;8.60;;;;;;;11.27;88.64;101360.31;4837318;29;20061;-83
2023/05/12 00:39:10;;;;;;;17.15;9.68;;;;;;;11.22;89.13;101344.72;4822802;29;20042;-83
2023/05/12 00:41:36;;;;;;;16.00;9.43;;;;;;;11.22;88.94;101350.13;4823654;29;20034;-82
2023/05/12 00:44:01;;;;;;;16.45;10.02;;;;;;;11.21;89.90;101351.13;4833033;29;20030;-83
2023/05/12 00:46:26;;;;;;;17.05;10.38;;;;;;;11.22;89.05;101347.41;4839993;29;20021;-82
2023/05/12 00:48:52;;;;;;;17.45;9.90;;;;;;;11.27;88.94;101345.00;4841837;29;20090;-82
2023/05/12 00:51:17;;;;;;;17.80;10.68;;;;;;;11.25;89.17;101340.81;4826291;29;20382;-83
2023/05/12 00:53:42;;;;;;;16.55;9.70;;;;;;;11.24;88.94;101348.06;4808105;29;20093;-82
2023/05/12 00:56:08;;;;;;;17.15;10.95;;;;;;;11.26;88.83;101342.47;4840501;29;20030;-83
2023/05/12 00:58:33;;;;;;;18.90;10.63;;;;;;;11.21;89.26;101345.75;4830500;29;20094;-82
2023/05/12 01:00:59;;;;;;;20.10;11.55;;;;;;;11.21;89.59;101346.56;4840360;29;20042;-83
2023/05/12 01:03:24;;;;;;;20.58;11.57;;;;;;;11.19;89.57;101347.78;4840394;29;20489;-82
2023/05/12 01:06:14;;;;;;;21.25;11.48;;;;;;;11.19;89.50;101351.34;4824421;29;20061;-81
2023/05/12 01:08:41;;;;;;;22.73;11.63;;;;;;;11.18;89.33;101346.13;4810179;29;20046;-81
2023/05/12 01:11:06;;;;;;;23.17;12.63;;;;;;;11.13;89.78;101344.00;4811544;29;20489;-81
2023/05/12 01:13:31;;;;;;;27.67;13.50;;;;;;;11.14;90.00;101350.22;4832284;29;20035;-81
2023/05/12 01:15:57;;;;;;;23.88;13.48;;;;;;;11.20;89.99;101347.63;4829733;29;20445;-81
2023/05/12 01:18:23;;;;;;;26.65;13.45;;;;;;;11.20;89.99;101346.78;4808104;29;20041;-80
2023/05/12 01:20:49;;;;;;;25.65;13.23;;;;;;;11.18;90.02;101351.50;4808516;29;20026;-81
2023/05/12 01:23:17;;;;;;;24.88;13.73;;;;;;;11.19;89.81;101343.25;4791513;29;20038;-81
2023/05/12 01:25:42;;;;;;;28.00;13.93;;;;;;;11.18;90.30;101344.28;4803702;29;20514;-81
2023/05/12 01:28:08;;;;;;;32.05;15.45;;;;;;;11.18;90.31;101340.72;4800149;29;20038;-81
2023/05/12 01:30:33;;;;;;;28.17;14.73;;;;;;;11.23;89.97;101333.75;4806350;29;20045;-80
2023/05/12 01:32:58;;;;;;;33.25;14.73;;;;;;;11.23;90.14;101343.69;4838159;29;20046;-81
2023/05/12 01:35:24;;;;;;;29.92;15.77;;;;;;;11.20;90.14;101344.94;4807370;29;20046;-81
2023/05/12 01:37:50;;;;;;;32.08;15.88;;;;;;;11.20;90.25;101334.16;4831569;29;20476;-81
2023/05/12 01:40:16;;;;;;;35.60;16.88;;;;;;;11.20;90.57;101333.28;4822764;29;20038;-81
2023/05/12 01:42:42;;;;;;;37.92;17.00;;;;;;;11.22;90.55;101336.63;4822981;29;20046;-82
2023/05/12 01:45:08;;;;;;;34.45;16.10;;;;;;;11.24;90.66;101329.19;4836590;29;20044;-82
2023/05/12 01:47:33;;;;;;;37.05;17.35;;;;;;;11.22;90.45;101336.63;4839940;29;20470;-82
2023/05/12 01:49:58;;;;;;;35.90;17.15;;;;;;;11.28;90.39;101332.34;4840096;29;20057;-82
2023/05/12 01:52:24;;;;;;;34.47;16.65;;;;;;;11.29;90.53;101331.31;4841552;29;20044;-81
2023/05/12 01:54:50;;;;;;;34.13;16.92;;;;;;;11.28;90.88;101333.19;4841749;29;20029;-80
2023/05/12 01:57:17;;;;;;;37.88;17.73;;;;;;;11.26;90.46;101332.56;4841585;29;20481;-82
2023/05/12 01:59:42;;;;;;;34.95;16.50;;;;;;;11.35;90.52;101336.78;4832677;29;20060;-81
2023/05/12 02:02:08;;;;;;;41.60;18.23;;;;;;;11.29;90.72;101331.31;4833772;29;20091;-81
2023/05/12 02:04:33;;;;;;;38.00;17.77;;;;;;;11.30;90.92;101335.69;4841281;29;20376;-81
2023/05/12 02:06:59;;;;;;;39.08;18.02;;;;;;;11.29;90.70;101332.19;4840030;29;20026;-81
2023/05/12 02:09:24;;;;;;;35.30;17.88;;;;;;;11.32;90.75;101333.66;4839939;29;20038;-81
2023/05/12 02:11:50;;;;;;;40.63;17.77;;;;;;;11.32;90.99;101337.16;4838810;29;20459;-81
2023/05/12 02:14:15;;;;;;;40.72;19.23;;;;;;;11.32;90.73;101339.03;4840841;29;20380;-81
2023/05/12 02:16:40;;;;;;;38.00;17.52;;;;;;;11.36;90.96;101335.75;4838237;29;20042;-81
2023/05/12 02:19:06;;;;;;;43.67;19.38;;;;;;;11.37;90.49;101333.91;4835641;29;20029;-82
2023/05/12 02:21:32;;;;;;;40.05;18.65;;;;;;;11.33;90.83;101330.75;4840617;29;20033;-81
2023/05/12 02:23:57;;;;;;;43.00;19.27;;;;;;;11.32;91.04;101331.78;4838442;29;20038;-81
2023/05/12 02:26:23;;;;;;;45.45;20.05;;;;;;;11.35;90.83;101331.41;4831892;29;20045;-81
2023/05/12 02:28:48;;;;;;;44.88;19.98;;;;;;;11.33;90.68;101335.31;4838931;29;20045;-81
2023/05/12 02:31:13;;;;;;;43.63;20.08;;;;;;;11.37;91.30;101329.34;4827564;29;20394;-81
2023/05/12 02:33:39;;;;;;;42.47;19.95;;;;;;;11.37;90.78;101328.53;4833302;29;20033;-82
2023/05/12 02:36:04;;;;;;;46.65;20.50;;;;;;;11.36;91.02;101333.06;4842276;29;20479;-82
2023/05/12 02:38:30;;;;;;;42.55;19.50;;;;;;;11.36;90.54;101316.06;4841661;29;20597;-82
2023/05/12 02:40:55;;;;;;;45.05;21.10;;;;;;;11.36;90.95;101322.28;4826137;29;20089;-82
2023/05/12 02:43:21;;;;;;;45.88;20.33;;;;;;;11.39;90.83;101321.06;4843688;29;20034;-82
2023/05/12 02:45:46;;;;;;;42.88;20.42;;;;;;;11.43;91.09;101322.34;4839100;29;20034;-81
2023/05/12 02:48:11;;;;;;;46.90;20.77;;;;;;;11.41;90.91;101323.56;4829304;29;20030;-82
2023/05/12 02:50:37;;;;;;;45.20;21.52;;;;;;;11.40;91.24;101327.31;4836280;29;20046;-81
2023/05/12 02:53:02;;;;;;;48.42;21.23;;;;;;;11.38;91.42;101314.84;4843016;29;20042;-81
2023/05/12 02:55:29;;;;;;;43.97;20.30;;;;;;;11.44;91.20;101321.31;4841882;29;20038;-81
2023/05/12 02:57:54;;;;;;;44.55;20.58;;;;;;;11.46;91.06;101323.84;4844161;29;20106;-82
2023/05/12 03:00:20;;;;;;;46.22;21.67;;;;;;;11.47;91.23;101325.53;4835695;29;20046;-81
2023/05/12 03:02:49;;;;;;;44.67;21.27;;;;;;;11.51;91.04;101318.69;4844429;29;20026;-82
2023/05/12 03:05:15;;;;;;;43.15;20.95;;;;;;;11.48;90.82;101319.94;4842982;29;20048;-81
2023/05/12 03:07:40;;;;;;;43.58;21.60;;;;;;;11.47;91.29;101322.81;4841928;29;20042;-82
2023/05/12 03:10:06;;;;;;;49.17;22.17;;;;;;;11.44;90.95;101324.03;4825026;29;20129;-82
2023/05/12 03:12:32;;;;;;;46.20;21.17;;;;;;;11.44;91.07;101321.31;4827007;29;20030;-81
2023/05/12 03:14:57;;;;;;;48.40;22.67;;;;;;;11.46;91.04;101326.53;4839708;29;20032;-82
2023/05/12 03:17:22;;;;;;;44.35;21.73;;;;;;;11.45;91.21;101330.28;4834511;29;20546;-82
2023/05/12 03:19:48;;;;;;;49.45;22.30;;;;;;;11.44;91.23;101323.19;4842784;29;20038;-81
2023/05/12 03:22:13;;;;;;;46.17;22.35;;;;;;;11.44;91.46;101331.28;4843262;29;20520;-82
2023/05/12 03:24:38;;;;;;;48.03;23.40;;;;;;;11.41;91.46;101331.66;4833422;29;20033;-81
2023/05/12 03:27:04;;;;;;;49.53;22.88;;;;;;;11.40;91.41;101324.59;4819553;29;20067;-82
2023/05/12 03:29:30;;;;;;;51.72;23.17;;;;;;;11.37;91.27;101323.13;4830862;29;20504;-82
2023/05/12 03:31:55;;;;;;;50.35;22.80;;;;;;;11.38;91.71;101331.03;4840129;29;20041;-81
2023/05/12 03:34:20;;;;;;;48.33;22.67;;;;;;;11.37;91.76;101328.53;4828363;29;20049;-81
2023/05/12 03:36:46;;;;;;;50.25;22.75;;;;;;;11.35;91.42;101327.88;4832238;29;20040;-82
2023/05/12 03:39:11;;;;;;;50.63;23.60;;;;;;;11.35;91.76;101323.31;4841012;29;20036;-82
2023/05/12 03:41:37;;;;;;;49.45;22.23;;;;;;;11.42;91.53;101330.66;4840992;29;20041;-81
2023/05/12 03:44:04;;;;;;;49.88;23.35;;;;;;;11.41;91.82;101337.06;4842527;29;20121;-82
2023/05/12 03:46:30;;;;;;;49.67;22.95;;;;;;;11.43;91.48;101337.72;4841614;29;20037;-81
2023/05/12 03:48:55;;;;;;;50.08;22.80;;;;;;;11.45;91.58;101330.28;4842981;29;20105;-82
2023/05/12 03:51:21;;;;;;;50.13;23.48;;;;;;;11.41;91.50;101339.75;4843437;29;20078;-82
2023/05/12 03:53:46;;;;;;;51.28;23.55;;;;;;;11.42;91.73;101339.56;4834524;29;20117;-82
2023/05/12 03:56:12;;;;;;;50.97;22.98;;;;;;;11.46;91.54;101342.72;4838103;29;20501;-81
2023/05/12 03:58:37;;;;;;;50.45;22.65;;;;;;;11.40;91.51;101346.16;4843528;29;20471;-82
2023/05/12 04:01:03;;;;;;;53.40;24.52;;;;;;;11.38;91.50;101340.97;4843386;29;20030;-81
2023/05/12 04:03:28;;;;;;;54.88;23.25;;;;;;;11.37;91.62;101342.81;4840445;29;20448;-81
2023/05/12 04:05:58;;;;;;;47.38;22.30;;;;;;;11.40;91.73;101356.94;4831133;29;20030;-82
2023/05/12 04:08:24;;;;;;;51.45;23.80;;;;;;;11.36;91.73;101354.63;4830267;29;20037;-81
2023/05/12 04:10:49;;;;;;;50.67;23.92;;;;;;;11.38;91.86;101354.47;4831791;29;20014;-82
2023/05/12 04:13:14;;;;;;;53.47;23.65;;;;;;;11.41;91.84;101350.53;4842985;29;20104;-82
2023/05/12 04:15:40;;;;;;;54.85;23.73;;;;;;;11.38;92.10;101352.59;4840510;29;20180;-81
2023/05/12 04:18:05;;;;;;;54.55;24.63;;;;;;;11.42;91.81;101355.72;4842545;29;20038;-81
2023/05/12 04:20:30;;;;;;;55.65;24.35;;;;;;;11.41;92.17;101355.94;4841324;29;20103;-82
2023/05/12 04:22:56;;;;;;;58.22;24.65;;;;;;;11.40;92.11;101351.56;4841534;29;20026;-81
2023/05/12 04:25:21;;;;;;;53.47;25.23;;;;;;;11.42;91.98;101352.22;4836912;29;20030;-82
2023/05/12 04:27:46;;;;;;;58.10;24.52;;;;;;;11.45;91.66;101349.97;4823713;29;20046;-81
2023/05/12 04:30:12;;;;;;;53.40;24.25;;;;;;;11.49;92.18;101363.88;4834367;29;20025;-81
2023/05/12 04:32:37;;;;;;;52.13;23.75;;;;;;;11.48;91.67;101359.50;4842084;29;20030;-82
2023/05/12 04:35:08;;;;;;;47.17;23.25;;;;;;;11.50;91.86;101363.72;4840995;29;20046;-81
2023/05/12 04:37:34;;;;;;;49.58;23.20;;;;;;;11.54;91.70;101372.25;4838409;29;20030;-82
2023/05/12 04:40:00;;;;;;;46.40;23.45;;;;;;;11.61;91.65;101367.78;4839810;29;20044;-82
2023/05/12 04:42:25;;;;;;;46.78;23.13;;;;;;;11.62;91.62;101374.84;4838090;24;20102;-82
2023/05/12 04:44:50;;;;;;;44.53;22.67;;;;;;;11.65;91.71;101377.13;4855500;29;20090;-81
2023/05/12 04:47:16;;;;;;;42.58;22.10;;;;;;;11.68;91.49;101379.44;4863823;29;20602;-81
2023/05/12 04:49:41;;;;;;;43.63;22.77;;;;;;;11.71;91.28;101383.66;4857305;29;20084;-81
2023/05/12 04:52:06;;;;;;;43.55;21.88;;;;;;;11.74;91.55;101385.94;4838345;29;20506;-81
2023/05/12 04:54:32;;;;;;;41.25;21.05;;;;;;;11.80;90.68;101395.97;4840595;29;20030;-81
2023/05/12 04:56:57;;;;;;;42.38;21.80;;;;;;;11.81;91.00;101402.22;4840568;29;20030;-81
2023/05/12 04:59:23;;;;;;;37.13;20.88;;;;;;;11.88;90.37;101392.31;4840262;29;20505;-81
2023/05/12 05:01:49;;;;;;;37.55;21.33;;;;;;;11.91;90.46;101402.72;4837069;29;20117;-81
2023/05/12 05:04:14;;;;;;;37.75;21.30;;;;;;;11.92;90.14;101399.00;4836029;29;20041;-81
2023/05/12 05:06:39;;;;;;;38.65;20.92;;;;;;;11.93;90.17;101411.47;4838292;29;20022;-81
2023/05/12 05:09:05;;;;;;;35.10;19.95;;;;;;;11.99;90.37;101415.28;4841272;29;20022;-81
2023/05/12 05:11:30;;;;;;;36.72;20.77;;;;;;;12.02;90.10;101419.44;4841837;29;20570;-81
2023/05/12 05:13:55;;;;;;;35.28;19.80;;;;;;;12.03;89.79;101415.72;4839709;29;20034;-81
2023/05/12 05:16:21;;;;;;;34.53;20.40;;;;;;;12.11;89.44;101421.81;4841091;29;20465;-82
2023/05/12 05:18:46;;;;;;;32.28;18.70;;;;;;;12.17;89.21;101422.09;4824944;29;20044;-81
2023/05/12 05:21:15;;;;;;;33.85;19.58;;;;;;;12.17;89.03;101422.94;4841101;29;20026;-81
2023/05/12 05:23:40;;;;;;;33.10;19.17;;;;;;;12.20;88.98;101438.72;4841533;29;20055;-81
2023/05/12 05:26:06;;;;;;;28.92;18.48;;;;;;;12.26;88.59;101429.88;4840563;29;20026;-81
2023/05/12 05:28:31;;;;;;;30.98;19.00;;;;;;;12.33;88.63;101439.91;4841104;29;20034;-80
2023/05/12 05:30:57;;;;;;;33.28;19.83;;;;;;;12.34;88.53;101436.97;4841003;29;20034;-82
2023/05/12 05:33:22;;;;;;;28.02;18.30;;;;;;;12.43;87.97;101443.09;4841663;29;20030;-88
2023/05/12 05:35:47;;;;;;;30.45;19.25;;;;;;;12.52;88.04;101444.63;4841810;29;20050;-88
2023/05/12 05:38:13;;;;;;;29.05;18.00;;;;;;;12.64;87.21;101452.19;4840694;29;20103;-88
2023/05/12 05:40:38;;;;;;;27.40;17.00;;;;;;;12.75;87.13;101459.75;4825195;29;20036;-88
2023/05/12 05:43:04;;;;;;;25.27;16.95;;;;;;;12.83;86.56;101456.06;4832716;29;20122;-88
2023/05/12 05:45:29;;;;;;;25.50;18.15;;;;;;;12.84;85.88;101469.38;4840941;29;20030;-88
2023/05/12 05:47:55;;;;;;;26.38;16.92;;;;;;;12.96;85.81;101472.38;4841624;29;20041;-88
2023/05/12 05:50:20;;;;;;;23.30;16.10;;;;;;;13.04;85.14;101477.63;4842494;29;20024;-88
2023/05/12 05:52:46;;;;;;;21.38;15.68;;;;;;;13.26;84.13;101482.97;4845160;29;20406;-88
2023/05/12 05:55:11;;;;;;;23.30;15.98;;;;;;;13.37;84.53;101488.81;4846911;29;20042;-88
2023/05/12 05:57:36;;;;;;;22.08;15.43;;;;;;;13.51;82.85;101478.94;4841935;29;20085;-89
2023/05/12 06:00:03;;;;;;;20.85;15.35;;;;;;;13.71;82.61;101485.28;4843151;29;20064;-88
2023/05/12 06:02:30;;;;;;;20.33;14.77;;;;;;;13.91;81.13;101484.53;4841069;29;20087;-88
2023/05/12 06:04:56;;;;;;;19.83;14.93;;;;;;;14.16;80.02;101486.66;4843040;29;20033;-89
2023/05/12 06:07:21;;;;;;;19.15;14.80;;;;;;;14.42;79.28;101490.44;4842601;29;20038;-85
2023/05/12 06:09:47;;;;;;;19.20;15.13;;;;;;;14.39;78.08;101487.09;4840158;29;20034;-81
2023/05/12 06:12:12;;;;;;;18.42;14.02;;;;;;;14.43;77.98;101494.81;4840298;29;20030;-81
2023/05/12 06:14:37;;;;;;;19.67;14.10;;;;;;;14.73;77.96;101494.44;4839016;29;20036;-78
2023/05/12 06:17:03;;;;;;;17.50;13.57;;;;;;;15.01;75.54;101500.44;4839950;29;20021;-78
2023/05/12 06:19:28;;;;;;;20.73;14.80;;;;;;;15.23;75.25;101499.41;4838452;29;20052;-84
2023/05/12 06:21:54;;;;;;;18.88;14.45;;;;;;;15.38;74.74;101515.41;4837565;29;20036;-83
2023/05/12 06:24:20;;;;;;;17.15;12.88;;;;;;;15.71;72.43;101514.47;4835800;29;20030;-82
2023/05/12 06:26:45;;;;;;;15.13;13.07;;;;;;;16.01;71.52;101513.97;4847830;29;20487;-83
2023/05/12 06:29:10;;;;;;;15.25;12.52;;;;;;;16.90;70.24;101516.66;4825670;29;20034;-83
2023/05/12 06:31:36;;;;;;;14.57;11.88;;;;;;;17.85;66.20;101521.94;4848013;29;20326;-84
2023/05/12 06:34:02;;;;;;;15.93;12.35;;;;;;;18.12;64.39;101517.00;4843079;29;20029;-84
2023/05/12 06:36:28;;;;;;;13.35;11.45;;;;;;;18.16;63.83;101518.19;4835131;29;20037;-83
2023/05/12 06:38:54;;;;;;;14.60;12.32;;;;;;;18.05;63.98;101510.81;4837983;29;20046;-83
2023/05/12 06:41:20;;;;;;;13.40;11.15;;;;;;;18.58;63.10;101521.97;4852360;29;20105;-83
2023/05/12 06:43:45;;;;;;;12.48;11.18;;;;;;;19.05;62.01;101523.97;4837107;29;20149;-85
2023/05/12 06:46:11;;;;;;;12.77;10.55;;;;;;;19.41;59.00;101532.94;4838452;29;20452;-83
2023/05/12 06:48:36;;;;;;;10.38;9.07;;;;;;;19.44;57.06;101537.91;4837486;29;20487;-85
2023/05/12 06:51:02;;;;;;;9.85;8.82;;;;;;;18.77;58.65;101533.63;4836907;29;20034;-85
2023/05/12 06:53:28;;;;;;;11.48;9.13;;;;;;;18.63;59.99;101533.00;4837946;29;20150;-82
2023/05/12 06:55:54;;;;;;;8.52;7.63;;;;;;;19.50;58.23;101542.41;4839532;29;20068;-82
2023/05/12 06:58:20;;;;;;;9.18;8.25;;;;;;;20.07;57.33;101540.88;4860642;29;20547;-82
2023/05/12 07:00:47;;;;;;;8.00;7.18;;;;;;;20.56;54.15;101534.88;4852024;29;20297;-83
2023/05/12 07:03:13;;;;;;;8.18;6.82;;;;;;;20.29;52.91;101543.72;4847178;29;20522;-83
2023/05/12 07:05:38;;;;;;;7.95;7.15;;;;;;;19.88;54.30;101547.59;4838175;29;20046;-83
2023/05/12 07:08:04;;;;;;;7.32;6.40;;;;;;;20.08;55.13;101553.47;4839456;29;20074;-82
2023/05/12 07:10:29;;;;;;;7.30;6.50;;;;;;;20.28;53.38;101557.66;4834991;29;20034;-82
2023/05/12 07:12:55;;;;;;;8.38;5.60;;;;;;;20.36;52.83;101562.72;4838609;29;20041;-82
2023/05/12 07:15:20;;;;;;;6.20;5.60;;;;;;;20.98;52.25;101561.06;4839753;29;20026;-82
2023/05/12 07:17:45;;;;;;;6.50;5.65;;;;;;;21.54;50.29;101567.59;4842417;29;20030;-81
2023/05/12 07:20:11;;;;;;;7.50;5.63;;;;;;;21.88;49.73;101573.81;4840676;29;20109;-83
2023/05/12 07:22:37;;;;;;;6.20;5.70;;;;;;;21.79;50.15;101564.38;4841710;29;20117;-83
2023/05/12 07:25:02;;;;;;;10.50;5.50;;;;;;;22.20;48.65;101558.53;4842375;29;20049;-82
2023/05/12 07:27:27;;;;;;;5.38;4.93;;;;;;;22.92;48.30;101569.34;4842707;29;20030;-82
2023/05/12 07:29:53;;;;;;;5.57;5.07;;;;;;;22.93;47.68;101551.81;4841185;29;20706;-82
2023/05/12 07:32:18;;;;;;;5.28;4.63;;;;;;;23.19;45.73;101562.94;4842443;29;20026;-82
2023/05/12 07:34:44;;;;;;;4.97;4.57;;;;;;;22.80;46.29;101555.81;4843065;29;20034;-81
2023/05/12 07:37:10;;;;;;;4.90;4.43;;;;;;;22.34;46.58;101573.47;4837424;29;20041;-81
2023/05/12 07:39:35;;;;;;;5.50;4.40;;;;;;;21.65;50.13;101569.41;4838585;29;20034;-82
2023/05/12 07:42:00;;;;;;;5.15;4.68;;;;;;;21.22;51.37;101563.59;4843197;29;20033;-80
2023/05/12 07:44:26;;;;;;;4.53;4.13;;;;;;;21.04;51.00;101573.72;4838670;29;20038;-81
2023/05/12 07:46:52;;;;;;;5.38;4.20;;;;;;;20.58;50.50;101570.22;4840994;29;20062;-81
2023/05/12 07:49:17;;;;;;;4.68;4.28;;;;;;;20.16;53.28;101574.09;4842189;29;20044;-81
2023/05/12 07:51:42;;;;;;;5.05;4.53;;;;;;;19.93;54.04;101577.75;4841113;29;20029;-79
2023/05/12 07:54:08;;;;;;;6.05;5.03;;;;;;;19.56;54.52;101580.78;4840608;29;20030;-80
2023/05/12 07:56:34;;;;;;;4.82;4.32;;;;;;;19.66;55.30;101572.78;4840666;29;20721;-80
2023/05/12 07:58:59;;;;;;;4.93;4.53;;;;;;;19.59;54.33;101583.03;4844455;29;20034;-81
2023/05/12 08:01:25;;;;;;;4.32;3.92;;;;;;;19.56;54.68;101586.22;4840310;29;20086;-83
2023/05/12 08:03:50;;;;;;;3.60;3.30;;;;;;;19.53;53.70;101579.34;4841767;29;20025;-80
2023/05/12 08:06:16;;;;;;;4.60;4.10;;;;;;;19.66;53.23;101572.78;4840421;29;20394;-80
2023/05/12 08:08:42;;;;;;;3.67;3.38;;;;;;;20.10;53.34;101584.13;4841341;29;20065;-79
2023/05/12 08:11:07;;;;;;;4.45;3.60;;;;;;;20.03;52.82;101585.34;4841273;29;20094;-81
2023/05/12 08:13:33;;;;;;;3.95;3.65;;;;;;;19.79;51.65;101582.63;4842336;29;20129;-79
2023/05/12 08:15:58;;;;;;;4.47;3.88;;;;;;;19.76;53.37;101586.69;4823516;29;20041;-80
2023/05/12 08:18:24;;;;;;;4.35;3.83;;;;;;;20.29;52.62;101584.75;4842977;29;20037;-80
2023/05/12 08:20:49;;;;;;;4.28;3.75;;;;;;;20.09;51.81;101582.44;4841161;29;20176;-79
2023/05/12 08:23:16;;;;;;;3.85;3.55;;;;;;;19.67;52.18;101593.56;4839067;29;21407;-79
2023/05/12 08:25:43;;;;;;;4.07;3.67;;;;;;;19.50;52.92;101594.31;4839856;29;20030;-78
2023/05/12 08:28:08;;;;;;;4.80;3.60;;;;;;;19.41;52.96;101593.03;4838250;29;20050;-80
2023/05/12 08:30:34;;;;;;;3.47;3.17;;;;;;;19.75;53.21;101593.22;4839970;29;20029;-79
2023/05/12 08:33:00;;;;;;;4.07;3.63;;;;;;;18.91;53.19;101600.53;4840765;29;20033;-79
2023/05/12 08:35:26;;;;;;;3.72;2.90;;;;;;;19.53;52.86;101599.28;4841079;29;20033;-79
2023/05/12 08:37:51;;;;;;;3.47;3.13;;;;;;;19.49;52.59;101598.09;4839639;29;20502;-80
2023/05/12 08:40:20;;;;;;;3.20;2.90;;;;;;;19.41;52.94;101603.94;4838732;29;20040;-79
2023/05/12 08:43:11;;;;;;;4.28;3.13;;;;;;;19.14;52.87;101611.75;4838711;29;20726;-80
2023/05/12 08:45:37;;;;;;;3.53;3.17;;;;;;;18.92;53.67;101613.09;4823998;29;20403;-79
2023/05/12 08:48:03;;;;;;;3.15;2.60;;;;;;;18.51;55.29;101617.53;4841722;29;20034;-79
2023/05/12 08:50:28;;;;;;;3.03;2.80;;;;;;;18.68;54.58;101622.31;4839591;29;20030;-79
2023/05/12 08:52:54;;;;;;;2.80;2.60;;;;;;;18.69;53.05;101623.97;4836056;29;20041;-80
2023/05/12 08:55:19;;;;;;;3.15;2.70;;;;;;;19.18;52.56;101621.97;4840199;29;20026;-82
2023/05/12 08:57:47;;;;;;;2.85;2.58;;;;;;;19.19;52.94;101626.38;4839521;29;20487;-81
2023/05/12 09:00:12;;;;;;;2.45;2.25;;;;;;;19.64;52.07;101629.56;4816198;29;20034;-82
2023/05/12 09:02:39;;;;;;;3.20;2.90;;;;;;;19.62;51.69;101623.50;4837598;29;20558;-81
2023/05/12 09:05:05;;;;;;;3.13;2.80;;;;;;;19.47;50.09;101629.47;4837064;29;20026;-81
2023/05/12 09:07:30;;;;;;;2.75;2.38;;;;;;;19.30;52.04;101626.59;4837027;29;20387;-81
2023/05/12 09:09:56;;;;;;;3.00;2.75;;;;;;;19.20;52.08;101624.44;4831165;29;20090;-79
2023/05/12 09:12:25;;;;;;;2.60;2.40;;;;;;;19.67;53.58;101629.06;4838394;29;20486;-81
2023/05/12 09:15:09;;;;;;;4.25;2.70;;;;;;;19.87;49.59;101628.72;4824248;29;20064;-81
2023/05/12 09:17:35;;;;;;;2.60;2.40;;;;;;;20.12;48.28;101631.16;4839473;29;20034;-81
2023/05/12 09:20:01;;;;;;;2.75;2.55;;;;;;;19.94;49.08;101631.34;4833928;29;20448;-81
2023/05/12 09:22:30;;;;;;;3.40;2.20;;;;;;;20.14;48.86;101634.47;4832736;29;20059;-82
2023/05/12 09:24:56;;;;;;;2.60;2.40;;;;;;;20.57;50.16;101628.72;4835472;29;20030;-83
2023/05/12 09:27:27;;;;;;;2.33;2.20;;;;;;;20.78;48.93;101629.94;4839208;29;20449;-82
2023/05/12 09:29:53;;;;;;;3.58;2.40;;;;;;;20.79;47.27;101630.78;4839857;29;20501;-83
2023/05/12 09:32:34;;;;;;;2.47;2.28;;;;;;;21.07;47.61;101632.66;4838708;29;20026;-81
2023/05/12 09:35:09;;;;;;;3.15;2.30;;;;;;;21.14;48.11;101637.94;4841454;29;20038;-81
2023/05/12 09:37:35;;;;;;;3.35;2.78;;;;;;;21.04;46.99;101631.22;4835950;29;20134;-81
2023/05/12 09:40:01;;;;;;;2.80;2.60;;;;;;;21.32;47.78;101637.69;4837360;29;20028;-80
2023/05/12 09:42:28;;;;;;;2.78;2.40;;;;;;;21.31;45.95;101647.00;4837803;29;20540;-81
2023/05/12 09:44:58;;;;;;;2.60;2.40;;;;;;;21.09;46.37;101638.66;4849304;29;20382;-80
2023/05/12 09:47:27;;;;;;;2.53;2.30;;;;;;;20.97;45.77;101644.25;4840710;29;20074;-80
2023/05/12 09:49:53;;;;;;;4.22;2.42;;;;;;;21.21;45.29;101644.06;4837780;29;20113;-80
2023/05/12 09:52:21;;;;;;;2.95;2.75;;;;;;;21.09;45.17;101646.88;4837279;29;20482;-81
2023/05/12 09:54:51;;;;;;;2.88;2.67;;;;;;;20.84;47.41;101647.28;4840253;29;20038;-81
2023/05/12 09:57:16;;;;;;;2.75;2.50;;;;;;;20.90;48.16;101649.03;4840507;29;20041;-79
2023/05/12 09:59:42;;;;;;;2.83;2.50;;;;;;;20.85;46.39;101647.06;4806404;29;20030;-80
2023/05/12 10:02:08;;;;;;;3.35;2.63;;;;;;;20.60;47.07;101659.16;4824312;29;20034;-80
2023/05/12 10:04:44;;;;;;;2.90;2.70;;;;;;;20.36;47.63;101647.47;4839588;29;20109;-80
2023/05/12 10:07:11;;;;;;;2.70;2.50;;;;;;;20.03;47.85;101642.72;4822079;29;20046;-83
2023/05/12 10:09:38;;;;;;;2.60;2.40;;;;;;;19.98;48.95;101646.16;4824708;29;20089;-80
2023/05/12 10:12:05;;;;;;;3.30;2.78;;;;;;;19.71;48.40;101641.19;4822677;29;20037;-85
2023/05/12 10:14:30;;;;;;;2.67;2.47;;;;;;;20.39;47.95;101647.00;4837609;29;20037;-83
2023/05/12 10:16:55;;;;;;;3.00;2.70;;;;;;;20.38;46.70;101647.25;4840998;29;20393;-83
2023/05/12 10:19:21;;;;;;;2.60;2.40;;;;;;;20.66;47.09;101645.56;4823499;29;20123;-83
2023/05/12 10:21:46;;;;;;;3.92;2.63;;;;;;;21.03;45.96;101651.44;4838445;29;20038;-83
2023/05/12 10:24:13;;;;;;;3.78;2.60;;;;;;;21.30;46.16;101639.84;4824183;29;20030;-83
2023/05/12 10:26:39;;;;;;;4.05;3.00;;;;;;;21.23;45.27;101647.38;4839968;29;20056;-83
2023/05/12 10:29:04;;;;;;;4.07;2.90;;;;;;;21.32;45.09;101643.16;4822217;29;20418;-83
2023/05/12 10:31:30;;;;;;;3.08;2.78;;;;;;;21.60;44.17;101644.16;4840327;29;20026;-83
2023/05/12 10:33:58;;;;;;;2.95;2.75;;;;;;;22.64;42.85;101642.66;4839998;29;20022;-83
2023/05/12 10:36:24;;;;;;;4.18;2.50;;;;;;;22.81;42.36;101645.31;4838137;29;20395;-83
2023/05/12 10:38:50;;;;;;;2.88;2.67;;;;;;;23.29;40.46;101629.78;4839105;29;20391;-83
2023/05/12 10:41:16;;;;;;;3.90;2.75;;;;;;;23.47;40.23;101642.25;4838949;29;20555;-83
2023/05/12 10:43:44;;;;;;;2.88;2.67;;;;;;;23.49;41.14;101638.44;4821096;29;20108;-82
2023/05/12 10:46:12;;;;;;;2.80;2.60;;;;;;;23.60;40.04;101634.66;4838277;29;20030;-82
2023/05/12 10:48:58;;;;;;;5.28;2.92;;;;;;;22.97;40.87;101638.03;4839900;29;20038;-82
2023/05/12 10:51:25;;;;;;;3.85;2.92;;;;;;;22.79;41.08;101642.00;4840664;29;20030;-83
2023/05/12 10:53:58;;;;;;;2.97;2.55;;;;;;;22.82;41.72;101641.47;4854381;29;20501;-82
2023/05/12 10:56:25;;;;;;;3.00;2.70;;;;;;;22.95;41.37;101631.97;4843359;29;20506;-82
2023/05/12 10:59:12;;;;;;;2.85;2.65;;;;;;;23.08;41.23;101637.03;4847946;29;20030;-82
2023/05/12 11:01:38;;;;;;;4.85;2.97;;;;;;;22.81;41.49;101634.34;4855323;29;20144;-83
2023/05/12 11:04:15;;;;;;;2.60;2.40;;;;;;;23.08;40.92;101637.03;4841758;29;20026;-83
2023/05/12 11:06:40;;;;;;;3.33;3.03;;;;;;;22.25;42.47;101647.16;4842803;29;20090;-82
2023/05/12 11:09:06;;;;;;;3.25;2.80;;;;;;;21.87;43.62;101637.09;4845333;29;20104;-83
2023/05/12 11:11:31;;;;;;;3.72;2.75;;;;;;;21.92;44.12;101634.44;4839895;29;20034;-82